Time;durP1;ratioP1;P1;durP2;ratioP2;P2;SDS_P1;SDS_P2;PMS_P1;PMS_P2;Temp;Humidity;BMP_temperature;BMP_pressure;BME280_temperature;BME280_humidity;BME280_pressure;Samples;Min_cycle;Max_cycle;Signal;HPM_P1;HPM_P2
2023/09/26 00:01:07;;;;;;;74.73;20.23;;;14.20;99.90;;;;;;4981721;28;20218;-78
2023/09/26 00:03:32;;;;;;;76.47;18.27;;;14.20;99.90;;;;;;4981440;28;20172;-78
2023/09/26 00:05:58;;;;;;;77.50;21.03;;;14.20;99.90;;;;;;4981893;28;20169;-78
2023/09/26 00:08:24;;;;;;;74.03;17.60;;;14.10;99.90;;;;;;4981661;28;20168;-78
2023/09/26 00:10:49;;;;;;;73.90;16.23;;;14.10;99.90;;;;;;4981774;28;20649;-78
2023/09/26 00:13:15;;;;;;;74.30;16.73;;;14.10;99.90;;;;;;4981600;28;20191;-79
2023/09/26 00:15:41;;;;;;;73.30;18.67;;;14.10;99.90;;;;;;4981941;28;20574;-78
2023/09/26 00:18:07;;;;;;;75.47;18.83;;;14.10;99.90;;;;;;4980734;28;20442;-78
2023/09/26 00:20:37;;;;;;;75.30;18.13;;;14.10;99.90;;;;;;4980778;28;20164;-78
2023/09/26 00:23:04;;;;;;;76.53;20.70;;;14.10;99.90;;;;;;4981111;28;20435;-78
2023/09/26 00:25:30;;;;;;;74.40;16.17;;;14.00;99.90;;;;;;4981659;28;20431;-78
2023/09/26 00:27:56;;;;;;;74.67;18.60;;;14.00;99.90;;;;;;4981042;28;20754;-78
2023/09/26 00:30:25;;;;;;;72.90;17.40;;;13.90;99.90;;;;;;4980808;28;20399;-79
2023/09/26 00:32:52;;;;;;;73.70;16.33;;;13.70;99.90;;;;;;4981206;28;20486;-79
2023/09/26 00:35:19;;;;;;;73.73;20.10;;;13.60;99.90;;;;;;4980890;28;20403;-78
2023/09/26 00:37:49;;;;;;;74.63;16.23;;;13.60;99.90;;;;;;4963008;28;20535;-78
2023/09/26 00:40:18;;;;;;;73.60;16.17;;;13.50;99.90;;;;;;4980546;28;20446;-79
2023/09/26 00:42:44;;;;;;;72.80;16.87;;;13.50;99.90;;;;;;4963233;28;20475;-78
2023/09/26 00:45:11;;;;;;;74.57;14.63;;;13.50;99.90;;;;;;4981628;28;20489;-78
2023/09/26 00:47:42;;;;;;;72.90;13.30;;;13.50;99.90;;;;;;4980796;28;20517;-78
2023/09/26 00:50:09;;;;;;;73.13;14.20;;;13.50;99.90;;;;;;4981395;28;20468;-78
2023/09/26 00:52:44;;;;;;;74.90;19.67;;;13.40;99.90;;;;;;4980551;28;20459;-78
2023/09/26 00:55:10;;;;;;;72.87;16.37;;;13.40;99.90;;;;;;4980960;28;20383;-78
2023/09/26 00:57:38;;;;;;;73.77;14.60;;;13.40;99.90;;;;;;4981102;28;20411;-78
2023/09/26 01:00:04;;;;;;;74.17;14.07;;;13.40;99.90;;;;;;4980223;28;20404;-78
2023/09/26 01:02:31;;;;;;;73.80;16.60;;;13.30;99.90;;;;;;4980465;28;20438;-78
2023/09/26 01:04:56;;;;;;;72.90;17.37;;;13.40;99.90;;;;;;4980730;28;20430;-78
2023/09/26 01:07:23;;;;;;;72.43;14.60;;;13.30;99.90;;;;;;4962983;28;20415;-78
2023/09/26 01:09:49;;;;;;;75.47;17.30;;;13.30;99.90;;;;;;4981320;28;20175;-78
2023/09/26 01:12:16;;;;;;;75.37;18.37;;;13.40;99.90;;;;;;4980875;28;20541;-78
2023/09/26 01:14:42;;;;;;;74.00;16.03;;;13.30;99.90;;;;;;4980522;28;20403;-79
2023/09/26 01:17:08;;;;;;;75.13;18.40;;;13.40;99.90;;;;;;4981271;28;20778;-78
2023/09/26 01:19:34;;;;;;;74.70;17.30;;;13.30;99.90;;;;;;4980862;28;20404;-78
2023/09/26 01:22:00;;;;;;;73.87;18.10;;;13.30;99.90;;;;;;4980752;28;20192;-78
2023/09/26 01:24:26;;;;;;;72.50;15.77;;;13.30;99.90;;;;;;4980302;28;20423;-78
2023/09/26 01:26:52;;;;;;;74.10;15.93;;;13.40;99.90;;;;;;4980955;28;20434;-78
2023/09/26 01:29:17;;;;;;;75.17;15.57;;;13.30;99.90;;;;;;4980998;28;20180;-78
2023/09/26 01:31:43;;;;;;;75.90;19.53;;;13.20;99.90;;;;;;4980853;28;20206;-78
2023/09/26 01:34:09;;;;;;;73.70;16.53;;;13.10;99.90;;;;;;4962759;28;20195;-78
2023/09/26 01:36:34;;;;;;;73.60;17.20;;;13.10;99.90;;;;;;4980172;28;20184;-78
2023/09/26 01:39:00;;;;;;;75.40;17.03;;;13.10;99.90;;;;;;4980749;28;20250;-78
2023/09/26 01:41:27;;;;;;;73.27;15.00;;;13.00;99.90;;;;;;4980775;28;20187;-78
2023/09/26 01:43:52;;;;;;;74.70;15.43;;;13.00;99.90;;;;;;4980369;28;20192;-78
2023/09/26 01:46:22;;;;;;;73.77;16.13;;;13.00;99.90;;;;;;4980414;28;20419;-78
2023/09/26 01:48:47;;;;;;;77.40;16.27;;;12.90;99.90;;;;;;4981560;28;20175;-78
2023/09/26 01:51:14;;;;;;;77.87;20.43;;;12.80;99.90;;;;;;4979632;28;20466;-77
2023/09/26 01:53:39;;;;;;;75.07;17.50;;;12.80;99.90;;;;;;4979908;28;20247;-78
2023/09/26 01:56:05;;;;;;;74.47;19.30;;;12.70;99.90;;;;;;4980340;28;20427;-78
2023/09/26 01:58:32;;;;;;;74.90;18.70;;;12.70;99.90;;;;;;4980244;28;20164;-78
2023/09/26 02:00:58;;;;;;;74.27;18.80;;;12.80;99.90;;;;;;4979754;28;20167;-78
2023/09/26 02:03:23;;;;;;;76.73;17.60;;;12.80;99.90;;;;;;4962388;28;20509;-78
2023/09/26 02:05:49;;;;;;;74.20;18.57;;;12.70;99.90;;;;;;4979633;28;20893;-78
2023/09/26 02:08:16;;;;;;;76.27;21.37;;;12.70;99.90;;;;;;4980787;28;20660;-78
2023/09/26 02:10:42;;;;;;;76.20;19.97;;;12.60;99.90;;;;;;4979902;28;20168;-78
2023/09/26 02:13:08;;;;;;;75.13;20.80;;;12.60;99.90;;;;;;4980773;28;20438;-78
2023/09/26 02:15:35;;;;;;;80.10;21.67;;;12.50;99.90;;;;;;4963467;28;20470;-78
2023/09/26 02:18:01;;;;;;;75.30;22.03;;;12.60;99.90;;;;;;4962585;28;20412;-78
2023/09/26 02:20:26;;;;;;;74.37;21.13;;;12.60;99.90;;;;;;4980019;28;20781;-78
2023/09/26 02:22:52;;;;;;;75.50;22.47;;;12.50;99.90;;;;;;4980387;28;20251;-78
2023/09/26 02:25:19;;;;;;;74.10;19.40;;;12.50;99.90;;;;;;4979769;28;20172;-78
2023/09/26 02:27:46;;;;;;;75.30;19.23;;;12.40;99.90;;;;;;4979979;28;20172;-78
2023/09/26 02:30:13;;;;;;;74.53;18.47;;;12.40;99.90;;;;;;4980874;28;20411;-78
2023/09/26 02:32:39;;;;;;;74.77;19.43;;;12.40;99.90;;;;;;4980276;28;20458;-78
2023/09/26 02:35:11;;;;;;;73.87;19.27;;;12.40;99.90;;;;;;4980866;28;20434;-78
2023/09/26 02:37:38;;;;;;;73.57;14.97;;;12.30;99.90;;;;;;4980571;28;20191;-78
2023/09/26 02:40:05;;;;;;;74.83;19.23;;;12.30;99.90;;;;;;4962887;28;20422;-78
2023/09/26 02:42:34;;;;;;;74.70;18.93;;;12.40;99.90;;;;;;4982738;28;20435;-78
2023/09/26 02:45:00;;;;;;;74.00;18.40;;;12.40;99.90;;;;;;4983408;28;20411;-78
2023/09/26 02:47:26;;;;;;;75.07;19.37;;;12.40;99.90;;;;;;4984354;28;20910;-78
2023/09/26 02:49:51;;;;;;;74.57;19.47;;;12.40;99.90;;;;;;4966009;28;20502;-78
2023/09/26 02:52:17;;;;;;;78.83;19.27;;;12.40;99.90;;;;;;4983856;28;20207;-78
2023/09/26 02:54:43;;;;;;;76.77;22.60;;;12.40;99.90;;;;;;4983778;28;20228;-78
2023/09/26 02:57:09;;;;;;;74.97;21.50;;;12.40;99.90;;;;;;4984291;28;20176;-78
2023/09/26 02:59:35;;;;;;;78.43;23.57;;;12.30;99.90;;;;;;4983307;28;20172;-78
2023/09/26 03:02:00;;;;;;;75.57;19.10;;;12.40;99.90;;;;;;4983890;28;20431;-78
2023/09/26 03:04:26;;;;;;;75.00;21.50;;;12.30;99.90;;;;;;4983429;28;20180;-78
2023/09/26 03:06:52;;;;;;;75.17;22.40;;;12.20;99.90;;;;;;4984087;28;20675;-78
2023/09/26 03:09:18;;;;;;;76.90;22.57;;;12.20;99.90;;;;;;4983781;28;20429;-78
2023/09/26 03:11:43;;;;;;;77.30;24.00;;;12.20;99.90;;;;;;4983181;28;20223;-78
2023/09/26 03:14:10;;;;;;;75.70;21.83;;;12.20;99.90;;;;;;4983679;28;20160;-78
2023/09/26 03:16:36;;;;;;;75.27;20.80;;;12.20;99.90;;;;;;4983192;28;20494;-78
2023/09/26 03:19:01;;;;;;;78.20;21.10;;;12.20;99.90;;;;;;4982899;28;20426;-78
2023/09/26 03:21:27;;;;;;;74.83;20.90;;;12.20;99.90;;;;;;4982793;28;20431;-78
2023/09/26 03:23:53;;;;;;;77.03;22.67;;;12.20;99.90;;;;;;4983433;28;20174;-78
2023/09/26 03:26:18;;;;;;;76.80;21.83;;;12.30;99.90;;;;;;4983639;28;20226;-78
2023/09/26 03:28:44;;;;;;;84.20;23.07;;;12.30;99.90;;;;;;4982912;28;20218;-78
2023/09/26 03:31:10;;;;;;;76.80;22.23;;;12.30;99.90;;;;;;4982867;28;20277;-78
2023/09/26 03:33:36;;;;;;;76.37;22.30;;;12.20;99.90;;;;;;4983283;28;20160;-78
2023/09/26 03:36:05;;;;;;;77.23;26.00;;;12.20;99.90;;;;;;4983145;28;20172;-78
2023/09/26 03:38:31;;;;;;;77.25;22.23;;;12.20;99.90;;;;;;4983138;28;20466;-78
2023/09/26 03:41:08;;;;;;;79.67;23.90;;;12.20;99.90;;;;;;4983058;28;20179;-78
2023/09/26 03:43:34;;;;;;;75.97;23.15;;;12.20;99.90;;;;;;4982748;28;20471;-78
2023/09/26 03:46:07;;;;;;;76.50;23.57;;;12.10;99.90;;;;;;4983205;28;20195;-78
2023/09/26 03:48:34;;;;;;;76.87;25.87;;;12.00;99.90;;;;;;4982124;28;20153;-78
2023/09/26 03:51:11;;;;;;;77.85;25.13;;;12.00;99.90;;;;;;4982903;28;20435;-78
2023/09/26 03:53:37;;;;;;;79.67;28.27;;;12.00;99.90;;;;;;4982785;28;20179;-78
2023/09/26 03:56:03;;;;;;;78.97;30.48;;;12.00;99.90;;;;;;4982509;28;20901;-78
2023/09/26 03:58:29;;;;;;;82.37;30.93;;;12.00;99.90;;;;;;4965302;28;20175;-78
2023/09/26 04:00:54;;;;;;;79.60;32.17;;;12.10;99.90;;;;;;4982716;28;20414;-78
2023/09/26 04:03:20;;;;;;;78.07;30.33;;;12.20;99.90;;;;;;4982284;28;20255;-78
2023/09/26 04:05:48;;;;;;;81.60;32.13;;;12.20;99.90;;;;;;4982461;28;20235;-78
2023/09/26 04:08:17;;;;;;;80.70;33.67;;;12.10;99.90;;;;;;4982874;28;20172;-78
2023/09/26 04:10:42;;;;;;;84.57;36.03;;;12.10;99.90;;;;;;4982444;28;20439;-78
2023/09/26 04:13:08;;;;;;;82.10;35.20;;;12.10;99.90;;;;;;4983154;28;20446;-78
2023/09/26 04:15:40;;;;;;;79.60;33.53;;;12.10;99.90;;;;;;4982209;28;20183;-78
2023/09/26 04:18:06;;;;;;;81.55;34.75;;;12.10;99.90;;;;;;4982340;28;20424;-78
2023/09/26 04:20:35;;;;;;;78.77;31.70;;;12.20;99.90;;;;;;4982081;28;20175;-78
2023/09/26 04:23:01;;;;;;;82.22;29.90;;;12.20;99.90;;;;;;4982509;28;20420;-78
2023/09/26 04:25:30;;;;;;;83.27;29.47;;;12.20;99.90;;;;;;4982778;28;20187;-78
2023/09/26 04:27:55;;;;;;;79.90;34.07;;;12.20;99.90;;;;;;4981651;28;20403;-78
2023/09/26 04:30:21;;;;;;;81.37;33.63;;;12.20;99.90;;;;;;4982373;28;20418;-78
2023/09/26 04:32:47;;;;;;;78.27;32.40;;;12.20;99.90;;;;;;4963942;28;20582;-78
2023/09/26 04:35:12;;;;;;;83.00;34.90;;;12.10;99.90;;;;;;4982094;28;20230;-78
2023/09/26 04:37:38;;;;;;;80.20;32.60;;;12.10;99.90;;;;;;4982096;28;20207;-78
2023/09/26 04:40:09;;;;;;;85.40;37.13;;;11.90;99.90;;;;;;4981814;28;20232;-78
2023/09/26 04:42:41;;;;;;;81.57;35.47;;;11.90;99.90;;;;;;4982110;28;20258;-78
2023/09/26 04:45:08;;;;;;;81.90;32.95;;;11.80;99.90;;;;;;4981854;28;20160;-78
2023/09/26 04:47:35;;;;;;;81.13;33.37;;;11.80;99.90;;;;;;4981789;28;20183;-78
2023/09/26 04:50:05;;;;;;;79.80;36.20;;;11.80;99.90;;;;;;4982523;28;20403;-78
2023/09/26 04:52:31;;;;;;;84.45;37.22;;;11.80;99.90;;;;;;4981021;28;20459;-78
2023/09/26 04:54:57;;;;;;;80.30;36.43;;;11.80;99.90;;;;;;4982073;28;20648;-78
2023/09/26 04:57:23;;;;;;;81.70;35.30;;;11.80;99.90;;;;;;4982005;28;20168;-78
2023/09/26 04:59:48;;;;;;;81.47;34.40;;;11.70;99.90;;;;;;4981619;28;20255;-78
2023/09/26 05:02:14;;;;;;;81.30;35.80;;;11.60;99.90;;;;;;4980751;28;20194;-78
2023/09/26 05:04:45;;;;;;;81.37;35.97;;;11.60;99.90;;;;;;4981373;28;20176;-78
2023/09/26 05:07:11;;;;;;;82.47;38.07;;;11.60;99.90;;;;;;4963894;28;20178;-78
2023/09/26 05:09:40;;;;;;;85.33;43.97;;;11.60;99.90;;;;;;4981476;28;20411;-78
2023/09/26 05:12:05;;;;;;;84.85;41.20;;;11.60;99.90;;;;;;4980841;28;20258;-78
2023/09/26 05:14:31;;;;;;;81.07;38.17;;;11.60;99.90;;;;;;4981287;28;20578;-78
2023/09/26 05:16:57;;;;;;;82.60;39.57;;;11.60;99.90;;;;;;4980664;28;20944;-78
2023/09/26 05:19:22;;;;;;;84.97;43.37;;;11.50;99.90;;;;;;4980867;28;20175;-78
2023/09/26 05:21:48;;;;;;;89.50;45.47;;;11.60;99.90;;;;;;4981450;28;20239;-78
2023/09/26 05:24:14;;;;;;;83.50;42.30;;;11.50;99.90;;;;;;4980489;28;20655;-78
2023/09/26 05:26:42;;;;;;;83.60;46.07;;;11.50;99.90;;;;;;4981289;28;20236;-78
2023/09/26 05:29:07;;;;;;;86.38;48.97;;;11.60;99.90;;;;;;4980404;28;20172;-78
2023/09/26 05:31:33;;;;;;;87.60;50.67;;;11.70;99.90;;;;;;4964112;28;20218;-78
2023/09/26 05:33:59;;;;;;;86.73;48.07;;;11.80;99.90;;;;;;4963352;28;20168;-78
2023/09/26 05:36:25;;;;;;;88.13;51.37;;;11.90;99.90;;;;;;4981425;28;20171;-78
2023/09/26 05:38:51;;;;;;;88.03;56.45;;;11.80;99.90;;;;;;4981253;28;20411;-77
2023/09/26 05:41:17;;;;;;;88.67;49.83;;;11.80;99.90;;;;;;4980309;28;20172;-78
2023/09/26 05:43:43;;;;;;;85.95;46.85;;;11.80;99.90;;;;;;4980205;28;20168;-78
2023/09/26 05:46:09;;;;;;;87.53;47.58;;;11.80;99.90;;;;;;4980710;28;20164;-78
2023/09/26 05:48:35;;;;;;;88.20;43.67;;;11.80;99.90;;;;;;4980387;28;20174;-78
2023/09/26 05:51:05;;;;;;;83.43;42.42;;;11.70;99.90;;;;;;4979986;28;20199;-77
2023/09/26 05:53:31;;;;;;;84.65;43.05;;;11.70;99.90;;;;;;4980870;28;20617;-78
2023/09/26 05:55:57;;;;;;;85.93;42.60;;;11.70;99.90;;;;;;4980690;28;20160;-78
2023/09/26 05:58:23;;;;;;;83.13;43.63;;;11.70;99.90;;;;;;4980672;28;20430;-78
2023/09/26 06:00:48;;;;;;;83.57;44.27;;;11.70;99.90;;;;;;4980177;28;20172;-78
2023/09/26 06:03:15;;;;;;;83.50;39.93;;;11.70;99.90;;;;;;4980481;28;20430;-78
2023/09/26 06:05:42;;;;;;;85.90;49.95;;;11.60;99.90;;;;;;4980227;28;20170;-78
2023/09/26 06:08:08;;;;;;;85.50;49.58;;;11.60;99.90;;;;;;4980230;28;20242;-78
2023/09/26 06:10:34;;;;;;;89.70;50.37;;;11.60;99.90;;;;;;4962789;28;20164;-78
2023/09/26 06:12:59;;;;;;;91.97;50.73;;;11.70;99.90;;;;;;4962325;28;20230;-78
2023/09/26 06:15:25;;;;;;;87.03;52.63;;;11.70;99.90;;;;;;4979547;28;20450;-78
2023/09/26 06:17:59;;;;;;;88.37;51.77;;;11.80;99.90;;;;;;4980810;28;20188;-77
2023/09/26 06:20:27;;;;;;;88.88;50.35;;;12.00;99.90;;;;;;4979738;28;20172;-78
2023/09/26 06:22:53;;;;;;;95.40;53.87;;;12.00;99.90;;;;;;4979300;28;20254;-77
2023/09/26 06:25:22;;;;;;;91.75;50.47;;;12.00;99.90;;;;;;4979196;28;20762;-77
2023/09/26 06:27:48;;;;;;;95.13;62.67;;;12.10;99.90;;;;;;4979091;28;20529;-77
2023/09/26 06:30:16;;;;;;;93.17;55.57;;;12.10;99.90;;;;;;4978931;28;20191;-77
2023/09/26 06:32:42;;;;;;;100.63;59.67;;;12.10;99.90;;;;;;4961757;28;20467;-77
2023/09/26 06:35:09;;;;;;;94.20;63.60;;;12.20;99.90;;;;;;4978756;28;20414;-77
2023/09/26 06:37:35;;;;;;;88.07;53.13;;;12.20;99.90;;;;;;4978697;28;20195;-77
2023/09/26 06:40:04;;;;;;;93.70;62.30;;;12.30;99.90;;;;;;4979065;28;20419;-77
2023/09/26 06:42:35;;;;;;;95.47;68.07;;;12.40;99.90;;;;;;4978865;28;20204;-78
2023/09/26 06:45:01;;;;;;;93.07;58.90;;;12.40;99.90;;;;;;4961090;28;20172;-77
2023/09/26 06:47:27;;;;;;;99.23;66.13;;;12.50;99.90;;;;;;4978933;28;20495;-77
2023/09/26 06:49:54;;;;;;;93.10;64.43;;;12.50;99.90;;;;;;4978989;28;20172;-77
2023/09/26 06:52:22;;;;;;;94.00;64.60;;;12.60;99.90;;;;;;4978518;28;20375;-78
2023/09/26 06:54:47;;;;;;;94.23;63.33;;;12.70;99.90;;;;;;4978455;28;20442;-78
2023/09/26 06:57:18;;;;;;;97.57;68.90;;;12.70;99.90;;;;;;4978397;28;20455;-78
2023/09/26 06:59:49;;;;;;;99.03;65.73;;;12.80;99.90;;;;;;4978479;28;20541;-78
2023/09/26 07:02:14;;;;;;;96.50;63.27;;;12.80;99.90;;;;;;4978610;28;20438;-78
2023/09/26 07:04:40;;;;;;;93.97;63.40;;;12.90;99.90;;;;;;4978293;28;20769;-78
2023/09/26 07:07:06;;;;;;;92.20;59.63;;;12.90;99.90;;;;;;4978414;28;20533;-77
2023/09/26 07:09:31;;;;;;;100.97;73.90;;;12.90;99.90;;;;;;4978328;28;20251;-78
2023/09/26 07:11:57;;;;;;;102.87;76.10;;;13.00;99.90;;;;;;4977863;28;20203;-77
2023/09/26 07:14:23;;;;;;;99.67;76.73;;;13.10;99.90;;;;;;4978585;28;20168;-77
2023/09/26 07:16:50;;;;;;;97.40;76.67;;;13.20;99.90;;;;;;4978068;28;20637;-77
2023/09/26 07:19:16;;;;;;;98.77;72.07;;;13.20;99.90;;;;;;4977874;28;20160;-78
2023/09/26 07:21:42;;;;;;;93.60;61.87;;;13.20;99.90;;;;;;4978323;28;20921;-77
2023/09/26 07:24:08;;;;;;;99.73;77.67;;;13.30;99.90;;;;;;4977909;28;20537;-78
2023/09/26 07:26:34;;;;;;;98.07;74.97;;;13.40;99.90;;;;;;4978185;28;20410;-78
2023/09/26 07:29:00;;;;;;;95.80;70.40;;;13.40;99.90;;;;;;4960389;28;20494;-77
2023/09/26 07:31:26;;;;;;;104.97;76.67;;;13.40;99.90;;;;;;4977710;28;20513;-78
2023/09/26 07:33:52;;;;;;;98.80;72.37;;;13.50;99.90;;;;;;4960050;28;20828;-77
2023/09/26 07:36:18;;;;;;;92.40;56.93;;;13.50;99.90;;;;;;4977546;28;20610;-77
2023/09/26 07:38:46;;;;;;;94.37;57.23;;;13.60;99.90;;;;;;4977499;28;20486;-78
2023/09/26 07:41:12;;;;;;;100.47;77.47;;;13.70;99.90;;;;;;4960578;28;20199;-77
2023/09/26 07:43:43;;;;;;;96.47;58.97;;;13.70;99.90;;;;;;4977828;28;20410;-78
2023/09/26 07:46:09;;;;;;;99.43;57.07;;;13.70;99.90;;;;;;4978047;28;20151;-78
2023/09/26 07:48:36;;;;;;;98.17;62.60;;;13.80;99.90;;;;;;4977657;28;20414;-77
2023/09/26 07:51:09;;;;;;;101.27;70.43;;;13.90;99.90;;;;;;4977068;28;20410;-77
2023/09/26 07:53:35;;;;;;;103.43;58.33;;;13.80;99.90;;;;;;4977720;28;20530;-77
2023/09/26 07:56:01;;;;;;;100.00;69.63;;;13.90;99.90;;;;;;4977258;28;20801;-77
2023/09/26 07:58:30;;;;;;;103.87;73.00;;;13.90;99.90;;;;;;4977112;28;20412;-78
2023/09/26 08:00:58;;;;;;;97.87;63.00;;;14.00;99.90;;;;;;4977720;28;20545;-77
2023/09/26 08:03:25;;;;;;;104.23;75.00;;;14.00;99.90;;;;;;4976988;28;20425;-77
2023/09/26 08:06:01;;;;;;;100.50;72.40;;;14.10;99.90;;;;;;4977124;28;20407;-77
2023/09/26 08:08:28;;;;;;;98.23;69.50;;;14.20;99.90;;;;;;4976866;28;20475;-78
2023/09/26 08:10:54;;;;;;;99.27;60.20;;;14.20;99.90;;;;;;4976730;28;20435;-77
2023/09/26 08:13:20;;;;;;;104.23;59.60;;;14.30;99.90;;;;;;4976911;28;20462;-78
2023/09/26 08:15:46;;;;;;;92.17;53.80;;;14.40;99.90;;;;;;4976643;28;20428;-77
2023/09/26 08:18:12;;;;;;;90.23;45.40;;;14.50;99.90;;;;;;4976410;28;20167;-77
2023/09/26 08:20:37;;;;;;;95.30;55.17;;;14.50;99.90;;;;;;4976662;28;20432;-77
2023/09/26 08:23:05;;;;;;;94.20;49.43;;;14.60;99.90;;;;;;4976035;28;20688;-78
2023/09/26 08:25:34;;;;;;;91.90;49.37;;;14.70;99.90;;;;;;4975963;28;20176;-77
2023/09/26 08:28:01;;;;;;;85.73;43.83;;;14.80;99.90;;;;;;4975858;28;20455;-77
2023/09/26 08:30:27;;;;;;;85.20;36.23;;;14.90;99.90;;;;;;4975982;28;20439;-77
2023/09/26 08:32:53;;;;;;;81.97;26.90;;;15.00;99.90;;;;;;4975750;28;21026;-77
2023/09/26 08:35:18;;;;;;;84.60;28.23;;;15.10;99.90;;;;;;4975672;28;20411;-77
2023/09/26 08:37:44;;;;;;;81.87;32.27;;;15.10;99.90;;;;;;4975709;28;20180;-78
2023/09/26 08:40:13;;;;;;;85.17;35.30;;;15.20;99.90;;;;;;4974998;28;20226;-78
2023/09/26 08:42:45;;;;;;;84.23;26.40;;;15.30;99.90;;;;;;4975667;28;20239;-78
2023/09/26 08:45:12;;;;;;;81.60;28.07;;;15.30;99.90;;;;;;4975810;28;20450;-78
2023/09/26 08:47:43;;;;;;;80.20;25.00;;;15.40;99.90;;;;;;4975710;28;20462;-77
2023/09/26 08:50:09;;;;;;;79.50;24.63;;;15.50;99.90;;;;;;4975860;28;20878;-77
2023/09/26 08:52:35;;;;;;;79.57;21.87;;;15.60;99.90;;;;;;4975310;28;20459;-77
2023/09/26 08:55:02;;;;;;;77.27;22.30;;;15.70;99.90;;;;;;4976057;28;20407;-77
2023/09/26 08:57:28;;;;;;;78.27;25.20;;;15.70;99.90;;;;;;4975559;28;20769;-77
2023/09/26 08:59:55;;;;;;;76.97;23.10;;;15.80;99.90;;;;;;4975446;28;20499;-77
2023/09/26 09:02:20;;;;;;;79.33;26.80;;;15.90;99.90;;;;;;4975267;28;20191;-77
2023/09/26 09:04:46;;;;;;;83.20;35.87;;;16.00;99.90;;;;;;4975206;28;20884;-77
2023/09/26 09:07:13;;;;;;;86.90;38.30;;;16.10;99.90;;;;;;4975430;28;20176;-78
2023/09/26 09:10:10;;;;;;;82.43;32.60;;;16.20;99.90;;;;;;4975157;28;20175;-78
2023/09/26 09:12:37;;;;;;;81.07;35.10;;;16.30;99.90;;;;;;4957743;28;20545;-78
2023/09/26 09:15:23;;;;;;;86.37;39.37;;;16.40;99.90;;;;;;4975234;28;20446;-77
2023/09/26 09:17:51;;;;;;;82.77;32.73;;;16.50;99.90;;;;;;4974983;28;20415;-77
2023/09/26 09:20:34;;;;;;;81.70;36.10;;;16.60;99.90;;;;;;4975187;28;20462;-77
2023/09/26 09:23:07;;;;;;;80.97;32.30;;;16.70;99.90;;;;;;4974913;28;20423;-77
2023/09/26 09:25:38;;;;;;;76.17;19.53;;;16.80;99.90;;;;;;4974997;28;20416;-78
2023/09/26 09:28:07;;;;;;;75.77;20.57;;;16.90;93.10;;;;;;4976488;28;20394;-78
2023/09/26 09:30:43;;;;;;;75.90;18.83;;;17.10;93.70;;;;;;4974788;28;20482;-78
2023/09/26 09:33:09;;;;;;;74.30;14.80;;;17.20;91.10;;;;;;4974782;28;20462;-78
2023/09/26 09:35:36;;;;;;;73.80;14.77;;;17.20;79.90;;;;;;4974800;28;20403;-78
2023/09/26 09:38:02;;;;;;;74.87;13.07;;;17.30;77.00;;;;;;4974713;28;20443;-78
2023/09/26 09:40:28;;;;;;;73.80;12.80;;;17.30;71.00;;;;;;4974983;28;20422;-78
2023/09/26 09:42:55;;;;;;;72.23;11.57;;;17.40;78.60;;;;;;4974837;28;20423;-78
2023/09/26 09:45:21;;;;;;;73.77;12.03;;;17.60;75.60;;;;;;4975254;28;20412;-78
2023/09/26 09:47:48;;;;;;;72.20;10.97;;;17.80;81.50;;;;;;4974790;28;20407;-78
2023/09/26 09:50:15;;;;;;;74.17;10.80;;;17.90;45.60;;;;;;4974788;28;20410;-78
2023/09/26 09:52:48;;;;;;;73.73;10.73;;;18.10;32.60;;;;;;4974603;28;20992;-78
2023/09/26 09:55:23;;;;;;;73.70;10.30;;;18.30;44.50;;;;;;4974793;28;20388;-78
2023/09/26 09:57:53;;;;;;;72.40;15.17;;;18.50;43.70;;;;;;4974810;28;20406;-78
2023/09/26 10:00:24;;;;;;;74.43;12.37;;;18.70;19.20;;;;;;4975026;28;20758;-78
2023/09/26 10:02:53;;;;;;;71.40;7.37;;;18.90;10.30;;;;;;4975075;28;20454;-78
2023/09/26 10:05:21;;;;;;;72.57;8.60;;;19.00;1.00;;;;;;4974982;28;20414;-78
2023/09/26 10:07:49;;;;;;;73.30;7.80;;;19.20;5.60;;;;;;4975574;28;20494;-78
2023/09/26 10:10:18;;;;;;;74.00;8.07;;;19.40;1.00;;;;;;4978842;28;20408;-78
2023/09/26 10:12:44;;;;;;;72.20;9.90;;;19.40;1.00;;;;;;4979940;28;20542;-78
2023/09/26 10:15:11;;;;;;;72.60;11.27;;;19.50;1.00;;;;;;4980659;28;20411;-78
2023/09/26 10:17:43;;;;;;;73.20;9.70;;;19.60;1.00;;;;;;4980026;28;20542;-78
2023/09/26 10:20:15;;;;;;;73.43;12.67;;;19.90;1.00;;;;;;4963012;28;20407;-78
2023/09/26 10:22:43;;;;;;;73.80;12.80;;;19.90;1.00;;;;;;4980914;28;20450;-79
2023/09/26 10:25:18;;;;;;;72.20;11.90;;;20.00;1.00;;;;;;4980510;28;20403;-78
2023/09/26 10:27:46;;;;;;;75.33;10.73;;;20.10;1.00;;;;;;4980264;28;20891;-78
2023/09/26 10:30:18;;;;;;;78.97;8.27;;;20.30;1.00;;;;;;4980808;28;20415;-78
2023/09/26 10:32:44;;;;;;;69.97;6.10;;;20.60;1.00;;;;;;4979668;28;20454;-78
2023/09/26 10:35:13;;;;;;;69.47;4.90;;;20.80;1.00;;;;;;4980103;28;20418;-79
2023/09/26 10:37:40;;;;;;;68.90;4.43;;;21.20;1.00;;;;;;4962386;28;20840;-78
2023/09/26 10:40:12;;;;;;;74.20;5.03;;;21.20;1.00;;;;;;4981118;28;20419;-79
2023/09/26 10:42:42;;;;;;;72.13;5.20;;;21.20;1.00;;;;;;4975806;28;20449;-76
2023/09/26 10:45:11;;;;;;;70.07;5.83;;;21.30;1.00;;;;;;4956588;28;20485;-76
2023/09/26 10:47:38;;;;;;;69.27;5.50;;;21.40;1.00;;;;;;4974108;28;20423;-76
2023/09/26 10:50:09;;;;;;;70.50;6.20;;;21.50;1.00;;;;;;4973801;28;20494;-76
2023/09/26 10:52:35;;;;;;;69.00;4.70;;;21.60;1.00;;;;;;4973730;28;20984;-76
2023/09/26 10:55:03;;;;;;;73.13;5.00;;;21.90;1.00;;;;;;4973837;28;20888;-76
2023/09/26 10:57:29;;;;;;;70.17;4.40;;;21.90;1.00;;;;;;4973993;28;20421;-76
2023/09/26 10:59:55;;;;;;;74.80;5.43;;;21.90;1.00;;;;;;4973834;28;20404;-76
2023/09/26 11:02:23;;;;;;;70.67;8.33;;;22.10;1.00;;;;;;4974355;28;20450;-76
2023/09/26 11:04:50;;;;;;;74.73;9.80;;;22.30;1.00;;;;;;4977209;28;20187;-76
2023/09/26 11:07:16;;;;;;;71.27;10.90;;;22.40;1.00;;;;;;4977382;28;20407;-76
2023/09/26 11:09:44;;;;;;;72.57;15.60;;;22.50;1.00;;;;;;4977164;28;20422;-76
2023/09/26 11:12:12;;;;;;;73.97;16.57;;;22.50;1.00;;;;;;4976971;28;20454;-76
2023/09/26 11:14:38;;;;;;;74.10;19.40;;;22.60;1.00;;;;;;4977007;28;20454;-76
2023/09/26 11:17:06;;;;;;;72.07;15.13;;;22.70;1.00;;;;;;4976926;28;20407;-76
2023/09/26 11:19:34;;;;;;;73.30;18.50;;;22.70;1.00;;;;;;4977006;28;20400;-76
2023/09/26 11:22:00;;;;;;;74.00;20.93;;;22.80;1.00;;;;;;4959422;28;21035;-76
2023/09/26 11:24:32;;;;;;;76.80;21.13;;;22.90;1.00;;;;;;4976866;28;20415;-76
2023/09/26 11:27:04;;;;;;;74.00;20.57;;;23.00;1.00;;;;;;4977353;28;20403;-76
2023/09/26 11:29:31;;;;;;;73.80;20.90;;;22.90;1.00;;;;;;4977061;28;20396;-76
2023/09/26 11:31:57;;;;;;;75.03;23.80;;;22.90;1.00;;;;;;4976867;28;20467;-76
2023/09/26 11:34:24;;;;;;;74.90;21.17;;;23.00;1.00;;;;;;4976658;28;20407;-76
2023/09/26 11:36:50;;;;;;;74.87;19.87;;;23.00;1.00;;;;;;4976531;28;20809;-76
2023/09/26 11:39:23;;;;;;;76.47;23.50;;;23.00;1.00;;;;;;4976890;28;20482;-76
2023/09/26 11:42:08;;;;;;;76.20;24.57;;;23.00;1.00;;;;;;4976628;28;20466;-76
2023/09/26 11:44:35;;;;;;;83.03;12.10;;;23.30;1.00;;;;;;4976776;28;20415;-76
2023/09/26 11:47:03;;;;;;;72.30;13.53;;;23.30;1.00;;;;;;4959078;28;20948;-76
2023/09/26 11:49:30;;;;;;;73.70;18.37;;;23.50;1.00;;;;;;4976381;28;20411;-76
2023/09/26 11:51:56;;;;;;;72.93;12.43;;;23.60;1.00;;;;;;5044397;23;20493;-76
2023/09/26 11:54:22;;;;;;;74.47;14.40;;;23.80;1.00;;;;;;4994838;28;20406;-76
2023/09/26 11:56:48;;;;;;;72.70;14.47;;;23.90;1.00;;;;;;4994669;28;20458;-76
2023/09/26 11:59:14;;;;;;;74.07;10.37;;;23.80;1.00;;;;;;4994564;28;20408;-76
2023/09/26 12:01:44;;;;;;;78.23;12.17;;;23.80;1.00;;;;;;4988009;28;20434;-76
2023/09/26 12:04:13;;;;;;;72.33;13.10;;;24.00;1.00;;;;;;4975136;28;20495;-76
2023/09/26 12:06:40;;;;;;;77.67;9.37;;;24.30;1.00;;;;;;4975321;28;20391;-76
2023/09/26 12:09:19;;;;;;;72.67;8.30;;;24.50;1.00;;;;;;4975309;28;20746;-76
2023/09/26 12:11:49;;;;;;;74.30;9.03;;;24.30;1.00;;;;;;4974910;28;20458;-76
2023/09/26 12:14:16;;;;;;;70.73;9.80;;;24.20;1.00;;;;;;4973800;28;20411;-76
2023/09/26 12:16:43;;;;;;;71.63;11.47;;;23.90;1.00;;;;;;4974938;28;20820;-76
2023/09/26 12:19:12;;;;;;;70.17;7.57;;;23.90;1.00;;;;;;4975166;28;20937;-76
2023/09/26 12:21:41;;;;;;;71.20;11.10;;;23.50;1.00;;;;;;4974922;28;20462;-76
2023/09/26 12:24:07;;;;;;;71.80;11.73;;;23.40;1.00;;;;;;4975257;28;20414;-76
2023/09/26 12:26:33;;;;;;;258.37;240.37;;;23.50;1.00;;;;;;4974752;28;20465;-76
2023/09/26 12:28:58;;;;;;;73.73;17.67;;;23.40;1.00;;;;;;4974766;28;20185;-76